sensor_id;sensor_type;location;lat;lon;timestamp;P1;durP1;ratioP1;P2;durP2;ratioP2
4742;SDS011;24293;48.154;7.748;2022-12-29T00:01:08;6.67;;;2.27;;
4742;SDS011;24293;48.154;7.748;2022-12-29T00:03:35;4.33;;;2.00;;
4742;SDS011;24293;48.154;7.748;2022-12-29T00:06:01;8.67;;;2.10;;
4742;SDS011;24293;48.154;7.748;2022-12-29T00:08:28;7.67;;;2.30;;
4742;SDS011;24293;48.154;7.748;2022-12-29T00:11:07;4.53;;;2.20;;
4742;SDS011;24293;48.154;7.748;2022-12-29T00:13:33;4.37;;;2.00;;
4742;SDS011;24293;48.154;7.748;2022-12-29T00:16:18;3.13;;;1.60;;
4742;SDS011;24293;48.154;7.748;2022-12-29T00:18:44;3.87;;;1.53;;
4742;SDS011;24293;48.154;7.748;2022-12-29T00:21:12;4.83;;;1.93;;
4742;SDS011;24293;48.154;7.748;2022-12-29T00:23:56;4.23;;;1.90;;
4742;SDS011;24293;48.154;7.748;2022-12-29T00:26:42;9.30;;;2.17;;
4742;SDS011;24293;48.154;7.748;2022-12-29T00:29:26;3.80;;;1.70;;
4742;SDS011;24293;48.154;7.748;2022-12-29T00:32:10;10.47;;;1.90;;
4742;SDS011;24293;48.154;7.748;2022-12-29T00:34:54;5.80;;;1.50;;
4742;SDS011;24293;48.154;7.748;2022-12-29T00:37:35;2.70;;;1.20;;
4742;SDS011;24293;48.154;7.748;2022-12-29T00:40:20;4.40;;;1.53;;
4742;SDS011;24293;48.154;7.748;2022-12-29T00:43:05;8.00;;;1.57;;
4742;SDS011;24293;48.154;7.748;2022-12-29T00:45:49;5.67;;;1.57;;
4742;SDS011;24293;48.154;7.748;2022-12-29T00:48:16;4.30;;;1.63;;
4742;SDS011;24293;48.154;7.748;2022-12-29T00:51:04;2.07;;;1.33;;
4742;SDS011;24293;48.154;7.748;2022-12-29T00:53:29;3.07;;;1.73;;
4742;SDS011;24293;48.154;7.748;2022-12-29T00:55:56;3.20;;;1.50;;
4742;SDS011;24293;48.154;7.748;2022-12-29T00:58:23;3.83;;;1.77;;
4742;SDS011;24293;48.154;7.748;2022-12-29T01:00:52;3.50;;;1.73;;
4742;SDS011;24293;48.154;7.748;2022-12-29T01:03:19;3.90;;;1.43;;
4742;SDS011;24293;48.154;7.748;2022-12-29T01:05:45;6.23;;;1.43;;
4742;SDS011;24293;48.154;7.748;2022-12-29T01:08:11;8.00;;;1.70;;
4742;SDS011;24293;48.154;7.748;2022-12-29T01:10:38;3.83;;;1.60;;
4742;SDS011;24293;48.154;7.748;2022-12-29T01:13:03;5.13;;;1.40;;
4742;SDS011;24293;48.154;7.748;2022-12-29T01:15:31;3.50;;;1.43;;
4742;SDS011;24293;48.154;7.748;2022-12-29T01:17:58;2.63;;;1.30;;
4742;SDS011;24293;48.154;7.748;2022-12-29T01:20:24;12.87;;;1.60;;
4742;SDS011;24293;48.154;7.748;2022-12-29T01:22:52;3.07;;;1.40;;
4742;SDS011;24293;48.154;7.748;2022-12-29T01:25:19;2.60;;;1.30;;
4742;SDS011;24293;48.154;7.748;2022-12-29T01:27:45;3.83;;;1.93;;
4742;SDS011;24293;48.154;7.748;2022-12-29T01:30:12;5.43;;;1.70;;
4742;SDS011;24293;48.154;7.748;2022-12-29T01:32:40;2.20;;;1.50;;
4742;SDS011;24293;48.154;7.748;2022-12-29T01:35:06;4.17;;;1.53;;
4742;SDS011;24293;48.154;7.748;2022-12-29T01:37:33;3.43;;;1.20;;
4742;SDS011;24293;48.154;7.748;2022-12-29T01:39:59;5.93;;;1.60;;
4742;SDS011;24293;48.154;7.748;2022-12-29T01:42:26;3.00;;;1.50;;
4742;SDS011;24293;48.154;7.748;2022-12-29T01:44:53;3.73;;;1.73;;
4742;SDS011;24293;48.154;7.748;2022-12-29T01:50:07;2.73;;;1.53;;
4742;SDS011;24293;48.154;7.748;2022-12-29T01:52:35;3.17;;;1.47;;
4742;SDS011;24293;48.154;7.748;2022-12-29T01:55:06;1.83;;;1.30;;
4742;SDS011;24293;48.154;7.748;2022-12-29T01:57:34;3.53;;;1.63;;
4742;SDS011;24293;48.154;7.748;2022-12-29T02:00:04;2.70;;;1.30;;
4742;SDS011;24293;48.154;7.748;2022-12-29T02:02:31;2.33;;;1.23;;
4742;SDS011;24293;48.154;7.748;2022-12-29T02:04:58;3.87;;;1.77;;
4742;SDS011;24293;48.154;7.748;2022-12-29T02:07:27;2.57;;;1.20;;
4742;SDS011;24293;48.154;7.748;2022-12-29T02:09:54;8.50;;;1.90;;
4742;SDS011;24293;48.154;7.748;2022-12-29T02:12:21;3.90;;;1.70;;
4742;SDS011;24293;48.154;7.748;2022-12-29T02:14:49;5.23;;;1.60;;
4742;SDS011;24293;48.154;7.748;2022-12-29T02:17:18;9.50;;;1.83;;
4742;SDS011;24293;48.154;7.748;2022-12-29T02:22:41;3.33;;;1.60;;
4742;SDS011;24293;48.154;7.748;2022-12-29T02:25:19;4.60;;;1.70;;
4742;SDS011;24293;48.154;7.748;2022-12-29T02:27:54;3.50;;;1.80;;
4742;SDS011;24293;48.154;7.748;2022-12-29T02:33:12;6.03;;;1.77;;
4742;SDS011;24293;48.154;7.748;2022-12-29T02:35:42;2.67;;;1.73;;
4742;SDS011;24293;48.154;7.748;2022-12-29T02:38:13;4.40;;;1.53;;
4742;SDS011;24293;48.154;7.748;2022-12-29T02:40:43;3.57;;;1.37;;
4742;SDS011;24293;48.154;7.748;2022-12-29T02:43:14;4.43;;;1.40;;
4742;SDS011;24293;48.154;7.748;2022-12-29T02:45:46;4.77;;;1.80;;
4742;SDS011;24293;48.154;7.748;2022-12-29T02:48:16;2.57;;;1.30;;
4742;SDS011;24293;48.154;7.748;2022-12-29T02:50:47;4.17;;;1.40;;
4742;SDS011;24293;48.154;7.748;2022-12-29T02:53:15;4.40;;;2.03;;
4742;SDS011;24293;48.154;7.748;2022-12-29T02:56:03;3.30;;;1.83;;
4742;SDS011;24293;48.154;7.748;2022-12-29T02:58:29;3.53;;;1.80;;
4742;SDS011;24293;48.154;7.748;2022-12-29T03:01:03;3.97;;;1.67;;
4742;SDS011;24293;48.154;7.748;2022-12-29T03:03:38;4.30;;;1.80;;
4742;SDS011;24293;48.154;7.748;2022-12-29T03:06:13;7.60;;;2.10;;
4742;SDS011;24293;48.154;7.748;2022-12-29T03:08:43;3.40;;;2.07;;
4742;SDS011;24293;48.154;7.748;2022-12-29T03:11:12;3.40;;;2.20;;
4742;SDS011;24293;48.154;7.748;2022-12-29T03:13:54;3.70;;;2.17;;
4742;SDS011;24293;48.154;7.748;2022-12-29T03:16:40;3.30;;;2.00;;
4742;SDS011;24293;48.154;7.748;2022-12-29T03:19:13;5.07;;;1.87;;
4742;SDS011;24293;48.154;7.748;2022-12-29T03:21:42;4.27;;;2.20;;
4742;SDS011;24293;48.154;7.748;2022-12-29T03:24:27;5.23;;;2.10;;
4742;SDS011;24293;48.154;7.748;2022-12-29T03:26:55;6.30;;;2.07;;
4742;SDS011;24293;48.154;7.748;2022-12-29T03:29:23;5.73;;;2.10;;
4742;SDS011;24293;48.154;7.748;2022-12-29T03:31:50;2.90;;;1.70;;
4742;SDS011;24293;48.154;7.748;2022-12-29T03:34:19;3.67;;;2.00;;
4742;SDS011;24293;48.154;7.748;2022-12-29T03:36:47;3.57;;;2.10;;
4742;SDS011;24293;48.154;7.748;2022-12-29T03:39:14;2.67;;;1.90;;
4742;SDS011;24293;48.154;7.748;2022-12-29T03:41:43;3.90;;;2.00;;
4742;SDS011;24293;48.154;7.748;2022-12-29T03:44:10;4.17;;;2.13;;
4742;SDS011;24293;48.154;7.748;2022-12-29T03:46:37;3.47;;;1.80;;
4742;SDS011;24293;48.154;7.748;2022-12-29T03:49:04;5.07;;;2.00;;
4742;SDS011;24293;48.154;7.748;2022-12-29T03:51:33;3.00;;;1.77;;
4742;SDS011;24293;48.154;7.748;2022-12-29T03:53:59;4.10;;;1.70;;
4742;SDS011;24293;48.154;7.748;2022-12-29T03:56:26;7.63;;;2.13;;
4742;SDS011;24293;48.154;7.748;2022-12-29T03:58:52;3.00;;;2.00;;
4742;SDS011;24293;48.154;7.748;2022-12-29T04:01:18;6.93;;;2.50;;
4742;SDS011;24293;48.154;7.748;2022-12-29T04:03:45;6.53;;;2.33;;
4742;SDS011;24293;48.154;7.748;2022-12-29T04:06:11;7.90;;;2.13;;
4742;SDS011;24293;48.154;7.748;2022-12-29T04:08:39;4.50;;;2.10;;
4742;SDS011;24293;48.154;7.748;2022-12-29T04:11:06;7.77;;;2.30;;
4742;SDS011;24293;48.154;7.748;2022-12-29T04:13:32;4.43;;;2.60;;
4742;SDS011;24293;48.154;7.748;2022-12-29T04:15:59;3.77;;;2.03;;
4742;SDS011;24293;48.154;7.748;2022-12-29T04:18:25;4.20;;;2.13;;
4742;SDS011;24293;48.154;7.748;2022-12-29T04:20:51;3.93;;;2.10;;
4742;SDS011;24293;48.154;7.748;2022-12-29T04:23:29;3.83;;;2.50;;
4742;SDS011;24293;48.154;7.748;2022-12-29T04:25:57;6.60;;;2.80;;
4742;SDS011;24293;48.154;7.748;2022-12-29T04:28:23;3.67;;;2.00;;
4742;SDS011;24293;48.154;7.748;2022-12-29T04:30:50;3.20;;;1.87;;
4742;SDS011;24293;48.154;7.748;2022-12-29T04:33:17;4.00;;;2.13;;
4742;SDS011;24293;48.154;7.748;2022-12-29T04:35:43;3.20;;;1.97;;
4742;SDS011;24293;48.154;7.748;2022-12-29T04:38:10;4.47;;;2.13;;
4742;SDS011;24293;48.154;7.748;2022-12-29T04:40:37;4.70;;;2.70;;
4742;SDS011;24293;48.154;7.748;2022-12-29T04:43:05;6.73;;;1.97;;
4742;SDS011;24293;48.154;7.748;2022-12-29T04:45:32;4.50;;;2.17;;
4742;SDS011;24293;48.154;7.748;2022-12-29T04:47:58;3.47;;;2.57;;
4742;SDS011;24293;48.154;7.748;2022-12-29T04:50:25;5.53;;;2.57;;
4742;SDS011;24293;48.154;7.748;2022-12-29T04:52:51;4.80;;;2.20;;
4742;SDS011;24293;48.154;7.748;2022-12-29T04:55:18;6.83;;;2.47;;
4742;SDS011;24293;48.154;7.748;2022-12-29T04:57:44;5.10;;;2.80;;
4742;SDS011;24293;48.154;7.748;2022-12-29T05:00:13;7.90;;;2.93;;
4742;SDS011;24293;48.154;7.748;2022-12-29T05:02:39;4.10;;;2.83;;
4742;SDS011;24293;48.154;7.748;2022-12-29T05:05:06;6.53;;;2.50;;
4742;SDS011;24293;48.154;7.748;2022-12-29T05:07:33;8.60;;;2.70;;
4742;SDS011;24293;48.154;7.748;2022-12-29T05:09:59;5.70;;;3.03;;
4742;SDS011;24293;48.154;7.748;2022-12-29T05:12:28;4.30;;;3.03;;
4742;SDS011;24293;48.154;7.748;2022-12-29T05:14:55;7.90;;;2.40;;
4742;SDS011;24293;48.154;7.748;2022-12-29T05:17:23;5.63;;;2.40;;
4742;SDS011;24293;48.154;7.748;2022-12-29T05:19:50;6.20;;;2.97;;
4742;SDS011;24293;48.154;7.748;2022-12-29T05:22:16;5.93;;;2.77;;
4742;SDS011;24293;48.154;7.748;2022-12-29T05:24:43;4.33;;;2.53;;
4742;SDS011;24293;48.154;7.748;2022-12-29T05:27:09;5.20;;;2.50;;
4742;SDS011;24293;48.154;7.748;2022-12-29T05:29:36;4.67;;;2.37;;
4742;SDS011;24293;48.154;7.748;2022-12-29T05:32:02;8.37;;;2.77;;
4742;SDS011;24293;48.154;7.748;2022-12-29T05:34:30;3.77;;;1.93;;
4742;SDS011;24293;48.154;7.748;2022-12-29T05:36:57;4.80;;;2.50;;
4742;SDS011;24293;48.154;7.748;2022-12-29T05:39:23;8.73;;;2.97;;
4742;SDS011;24293;48.154;7.748;2022-12-29T05:41:50;5.80;;;2.47;;
4742;SDS011;24293;48.154;7.748;2022-12-29T05:44:16;6.80;;;3.07;;
4742;SDS011;24293;48.154;7.748;2022-12-29T05:46:43;5.27;;;2.40;;
4742;SDS011;24293;48.154;7.748;2022-12-29T05:49:09;6.13;;;2.87;;
4742;SDS011;24293;48.154;7.748;2022-12-29T05:51:37;5.83;;;2.27;;
4742;SDS011;24293;48.154;7.748;2022-12-29T05:54:04;3.23;;;2.07;;
4742;SDS011;24293;48.154;7.748;2022-12-29T05:56:31;4.03;;;1.87;;
4742;SDS011;24293;48.154;7.748;2022-12-29T05:58:57;3.87;;;2.00;;
4742;SDS011;24293;48.154;7.748;2022-12-29T06:01:24;6.27;;;1.93;;
4742;SDS011;24293;48.154;7.748;2022-12-29T06:03:50;4.67;;;1.77;;
4742;SDS011;24293;48.154;7.748;2022-12-29T06:06:17;5.53;;;2.10;;
4742;SDS011;24293;48.154;7.748;2022-12-29T06:08:45;7.73;;;2.23;;
4742;SDS011;24293;48.154;7.748;2022-12-29T06:11:11;4.37;;;2.57;;
4742;SDS011;24293;48.154;7.748;2022-12-29T06:13:37;3.97;;;1.93;;
4742;SDS011;24293;48.154;7.748;2022-12-29T06:16:04;8.87;;;2.30;;
4742;SDS011;24293;48.154;7.748;2022-12-29T06:18:31;4.90;;;1.70;;
4742;SDS011;24293;48.154;7.748;2022-12-29T06:20:59;5.33;;;2.30;;
4742;SDS011;24293;48.154;7.748;2022-12-29T06:23:25;4.17;;;2.40;;
4742;SDS011;24293;48.154;7.748;2022-12-29T06:25:53;5.33;;;2.20;;
4742;SDS011;24293;48.154;7.748;2022-12-29T06:28:20;2.80;;;1.80;;
4742;SDS011;24293;48.154;7.748;2022-12-29T06:30:46;4.23;;;1.90;;
4742;SDS011;24293;48.154;7.748;2022-12-29T06:33:13;4.20;;;2.07;;
4742;SDS011;24293;48.154;7.748;2022-12-29T06:35:41;5.30;;;2.33;;
4742;SDS011;24293;48.154;7.748;2022-12-29T06:38:07;4.90;;;1.60;;
4742;SDS011;24293;48.154;7.748;2022-12-29T06:40:34;3.10;;;1.77;;
4742;SDS011;24293;48.154;7.748;2022-12-29T06:43:02;2.30;;;1.53;;
4742;SDS011;24293;48.154;7.748;2022-12-29T06:45:28;8.43;;;1.70;;
4742;SDS011;24293;48.154;7.748;2022-12-29T06:47:54;2.30;;;1.60;;
4742;SDS011;24293;48.154;7.748;2022-12-29T06:50:21;13.43;;;2.20;;
4742;SDS011;24293;48.154;7.748;2022-12-29T06:52:47;3.63;;;1.63;;
4742;SDS011;24293;48.154;7.748;2022-12-29T06:55:14;4.63;;;1.50;;
4742;SDS011;24293;48.154;7.748;2022-12-29T06:57:41;6.43;;;1.87;;
4742;SDS011;24293;48.154;7.748;2022-12-29T07:00:10;3.43;;;1.30;;
4742;SDS011;24293;48.154;7.748;2022-12-29T07:02:36;3.40;;;1.63;;
4742;SDS011;24293;48.154;7.748;2022-12-29T07:05:03;6.70;;;1.93;;
4742;SDS011;24293;48.154;7.748;2022-12-29T07:07:29;3.10;;;1.93;;
4742;SDS011;24293;48.154;7.748;2022-12-29T07:09:56;4.30;;;2.10;;
4742;SDS011;24293;48.154;7.748;2022-12-29T07:12:22;5.27;;;2.57;;
4742;SDS011;24293;48.154;7.748;2022-12-29T07:14:49;4.83;;;2.30;;
4742;SDS011;24293;48.154;7.748;2022-12-29T07:17:17;6.30;;;2.53;;
4742;SDS011;24293;48.154;7.748;2022-12-29T07:19:43;3.30;;;2.00;;
4742;SDS011;24293;48.154;7.748;2022-12-29T07:22:10;3.67;;;2.30;;
4742;SDS011;24293;48.154;7.748;2022-12-29T07:24:36;3.47;;;1.90;;
4742;SDS011;24293;48.154;7.748;2022-12-29T07:27:03;2.80;;;2.00;;
4742;SDS011;24293;48.154;7.748;2022-12-29T07:29:29;4.60;;;2.40;;
4742;SDS011;24293;48.154;7.748;2022-12-29T07:31:56;5.20;;;2.83;;
4742;SDS011;24293;48.154;7.748;2022-12-29T07:34:24;3.97;;;2.20;;
4742;SDS011;24293;48.154;7.748;2022-12-29T07:36:50;4.93;;;1.80;;
4742;SDS011;24293;48.154;7.748;2022-12-29T07:39:17;6.30;;;1.93;;
4742;SDS011;24293;48.154;7.748;2022-12-29T07:41:43;6.10;;;1.87;;
4742;SDS011;24293;48.154;7.748;2022-12-29T07:44:09;6.73;;;1.93;;
4742;SDS011;24293;48.154;7.748;2022-12-29T07:46:36;10.47;;;2.60;;
4742;SDS011;24293;48.154;7.748;2022-12-29T07:49:02;6.90;;;2.30;;
4742;SDS011;24293;48.154;7.748;2022-12-29T07:51:30;9.10;;;1.73;;
4742;SDS011;24293;48.154;7.748;2022-12-29T07:53:57;4.60;;;1.93;;
4742;SDS011;24293;48.154;7.748;2022-12-29T07:56:25;4.30;;;2.03;;
4742;SDS011;24293;48.154;7.748;2022-12-29T07:58:51;3.50;;;1.80;;
4742;SDS011;24293;48.154;7.748;2022-12-29T08:01:18;4.77;;;2.10;;
4742;SDS011;24293;48.154;7.748;2022-12-29T08:03:44;3.90;;;1.87;;
4742;SDS011;24293;48.154;7.748;2022-12-29T08:06:11;3.23;;;1.77;;
4742;SDS011;24293;48.154;7.748;2022-12-29T08:08:39;3.50;;;1.77;;
4742;SDS011;24293;48.154;7.748;2022-12-29T08:11:05;6.73;;;2.33;;
4742;SDS011;24293;48.154;7.748;2022-12-29T08:13:32;5.90;;;2.57;;
4742;SDS011;24293;48.154;7.748;2022-12-29T08:15:58;2.60;;;1.90;;
4742;SDS011;24293;48.154;7.748;2022-12-29T08:18:25;3.00;;;2.13;;
4742;SDS011;24293;48.154;7.748;2022-12-29T08:20:51;3.60;;;2.20;;
4742;SDS011;24293;48.154;7.748;2022-12-29T08:23:18;4.33;;;2.23;;
4742;SDS011;24293;48.154;7.748;2022-12-29T08:25:46;5.70;;;2.27;;
4742;SDS011;24293;48.154;7.748;2022-12-29T08:28:13;2.90;;;1.80;;
4742;SDS011;24293;48.154;7.748;2022-12-29T08:30:40;4.23;;;1.87;;
4742;SDS011;24293;48.154;7.748;2022-12-29T08:33:07;2.57;;;1.67;;
4742;SDS011;24293;48.154;7.748;2022-12-29T08:35:33;3.17;;;1.70;;
4742;SDS011;24293;48.154;7.748;2022-12-29T08:38:00;5.97;;;2.67;;
4742;SDS011;24293;48.154;7.748;2022-12-29T08:40:26;8.33;;;2.80;;
4742;SDS011;24293;48.154;7.748;2022-12-29T08:42:54;4.43;;;2.30;;
4742;SDS011;24293;48.154;7.748;2022-12-29T08:45:20;5.30;;;1.60;;
4742;SDS011;24293;48.154;7.748;2022-12-29T08:47:47;2.43;;;1.40;;
4742;SDS011;24293;48.154;7.748;2022-12-29T08:50:13;3.03;;;1.80;;
4742;SDS011;24293;48.154;7.748;2022-12-29T08:52:40;3.97;;;1.90;;
4742;SDS011;24293;48.154;7.748;2022-12-29T08:55:07;5.97;;;1.90;;
4742;SDS011;24293;48.154;7.748;2022-12-29T08:57:33;3.73;;;1.60;;
4742;SDS011;24293;48.154;7.748;2022-12-29T09:00:01;4.60;;;2.17;;
4742;SDS011;24293;48.154;7.748;2022-12-29T09:02:28;4.53;;;1.80;;
4742;SDS011;24293;48.154;7.748;2022-12-29T09:04:54;5.73;;;2.27;;
4742;SDS011;24293;48.154;7.748;2022-12-29T09:07:22;3.30;;;1.70;;
4742;SDS011;24293;48.154;7.748;2022-12-29T09:09:48;4.90;;;1.63;;
4742;SDS011;24293;48.154;7.748;2022-12-29T09:12:15;11.80;;;2.30;;
4742;SDS011;24293;48.154;7.748;2022-12-29T09:14:42;3.43;;;2.20;;
4742;SDS011;24293;48.154;7.748;2022-12-29T09:17:10;3.33;;;1.67;;
4742;SDS011;24293;48.154;7.748;2022-12-29T09:19:54;4.90;;;2.70;;
4742;SDS011;24293;48.154;7.748;2022-12-29T09:22:20;5.93;;;2.37;;
4742;SDS011;24293;48.154;7.748;2022-12-29T09:24:47;3.80;;;2.00;;
4742;SDS011;24293;48.154;7.748;2022-12-29T09:27:13;3.60;;;2.00;;
4742;SDS011;24293;48.154;7.748;2022-12-29T09:29:40;4.83;;;2.23;;
4742;SDS011;24293;48.154;7.748;2022-12-29T09:32:06;6.07;;;2.20;;
4742;SDS011;24293;48.154;7.748;2022-12-29T09:34:34;3.53;;;1.80;;
4742;SDS011;24293;48.154;7.748;2022-12-29T09:37:01;4.33;;;1.77;;
4742;SDS011;24293;48.154;7.748;2022-12-29T09:39:27;3.87;;;1.60;;
4742;SDS011;24293;48.154;7.748;2022-12-29T09:41:57;3.37;;;1.90;;
4742;SDS011;24293;48.154;7.748;2022-12-29T09:44:29;6.30;;;3.20;;
4742;SDS011;24293;48.154;7.748;2022-12-29T09:46:57;4.83;;;2.00;;
4742;SDS011;24293;48.154;7.748;2022-12-29T09:49:26;10.43;;;2.37;;
4742;SDS011;24293;48.154;7.748;2022-12-29T09:51:59;5.13;;;2.23;;
4742;SDS011;24293;48.154;7.748;2022-12-29T09:57:15;6.63;;;2.33;;
4742;SDS011;24293;48.154;7.748;2022-12-29T09:59:42;6.30;;;2.47;;
4742;SDS011;24293;48.154;7.748;2022-12-29T10:02:13;6.73;;;3.77;;
4742;SDS011;24293;48.154;7.748;2022-12-29T10:04:43;6.90;;;3.00;;
4742;SDS011;24293;48.154;7.748;2022-12-29T10:07:13;4.63;;;2.40;;
4742;SDS011;24293;48.154;7.748;2022-12-29T10:09:42;5.60;;;2.67;;
4742;SDS011;24293;48.154;7.748;2022-12-29T10:12:15;4.13;;;1.60;;
4742;SDS011;24293;48.154;7.748;2022-12-29T10:14:52;4.67;;;2.50;;
4742;SDS011;24293;48.154;7.748;2022-12-29T10:17:24;6.80;;;2.80;;
4742;SDS011;24293;48.154;7.748;2022-12-29T10:19:57;9.73;;;2.43;;
4742;SDS011;24293;48.154;7.748;2022-12-29T10:22:38;8.50;;;2.50;;
4742;SDS011;24293;48.154;7.748;2022-12-29T10:25:10;4.40;;;2.27;;
4742;SDS011;24293;48.154;7.748;2022-12-29T10:27:37;6.13;;;2.17;;
4742;SDS011;24293;48.154;7.748;2022-12-29T10:30:04;3.90;;;1.93;;
4742;SDS011;24293;48.154;7.748;2022-12-29T10:32:32;6.33;;;2.60;;
4742;SDS011;24293;48.154;7.748;2022-12-29T10:35:03;5.17;;;2.00;;
4742;SDS011;24293;48.154;7.748;2022-12-29T10:37:34;11.50;;;3.50;;
4742;SDS011;24293;48.154;7.748;2022-12-29T10:40:12;8.23;;;2.47;;
4742;SDS011;24293;48.154;7.748;2022-12-29T10:42:40;7.77;;;2.57;;
4742;SDS011;24293;48.154;7.748;2022-12-29T10:45:10;6.83;;;2.70;;
4742;SDS011;24293;48.154;7.748;2022-12-29T10:47:42;10.03;;;2.40;;
4742;SDS011;24293;48.154;7.748;2022-12-29T10:50:13;4.50;;;2.33;;
4742;SDS011;24293;48.154;7.748;2022-12-29T10:52:41;8.63;;;2.57;;
4742;SDS011;24293;48.154;7.748;2022-12-29T10:55:09;12.43;;;2.60;;
4742;SDS011;24293;48.154;7.748;2022-12-29T10:57:39;8.10;;;2.77;;
4742;SDS011;24293;48.154;7.748;2022-12-29T11:00:10;9.10;;;3.27;;
4742;SDS011;24293;48.154;7.748;2022-12-29T11:02:43;8.70;;;3.73;;
4742;SDS011;24293;48.154;7.748;2022-12-29T11:05:12;6.67;;;2.50;;
4742;SDS011;24293;48.154;7.748;2022-12-29T11:07:44;4.27;;;2.00;;
4742;SDS011;24293;48.154;7.748;2022-12-29T11:10:16;8.90;;;4.83;;
4742;SDS011;24293;48.154;7.748;2022-12-29T11:12:54;10.40;;;4.80;;
4742;SDS011;24293;48.154;7.748;2022-12-29T11:15:21;8.73;;;4.13;;
4742;SDS011;24293;48.154;7.748;2022-12-29T11:17:49;9.00;;;4.07;;
4742;SDS011;24293;48.154;7.748;2022-12-29T11:20:19;8.20;;;3.13;;
4742;SDS011;24293;48.154;7.748;2022-12-29T11:22:54;6.03;;;3.00;;
4742;SDS011;24293;48.154;7.748;2022-12-29T11:25:20;7.43;;;3.57;;
4742;SDS011;24293;48.154;7.748;2022-12-29T11:27:54;4.97;;;2.80;;
4742;SDS011;24293;48.154;7.748;2022-12-29T11:30:22;6.60;;;2.80;;
4742;SDS011;24293;48.154;7.748;2022-12-29T11:32:50;3.30;;;2.43;;
4742;SDS011;24293;48.154;7.748;2022-12-29T11:35:18;3.63;;;2.00;;
4742;SDS011;24293;48.154;7.748;2022-12-29T11:37:57;14.03;;;2.10;;
4742;SDS011;24293;48.154;7.748;2022-12-29T11:40:24;6.00;;;2.10;;
4742;SDS011;24293;48.154;7.748;2022-12-29T11:42:51;3.50;;;1.90;;
4742;SDS011;24293;48.154;7.748;2022-12-29T11:45:19;6.80;;;2.20;;
4742;SDS011;24293;48.154;7.748;2022-12-29T11:47:47;8.30;;;2.47;;
4742;SDS011;24293;48.154;7.748;2022-12-29T11:50:16;3.10;;;1.57;;
4742;SDS011;24293;48.154;7.748;2022-12-29T11:52:44;3.73;;;2.13;;
4742;SDS011;24293;48.154;7.748;2022-12-29T11:55:17;5.83;;;2.20;;
4742;SDS011;24293;48.154;7.748;2022-12-29T11:57:44;4.13;;;1.43;;
4742;SDS011;24293;48.154;7.748;2022-12-29T12:00:14;3.30;;;2.40;;
4742;SDS011;24293;48.154;7.748;2022-12-29T12:02:42;5.27;;;2.43;;
4742;SDS011;24293;48.154;7.748;2022-12-29T12:05:21;4.27;;;1.90;;
4742;SDS011;24293;48.154;7.748;2022-12-29T12:07:49;3.40;;;1.77;;
4742;SDS011;24293;48.154;7.748;2022-12-29T12:10:21;3.67;;;1.70;;
4742;SDS011;24293;48.154;7.748;2022-12-29T12:12:50;6.70;;;2.80;;
4742;SDS011;24293;48.154;7.748;2022-12-29T12:15:19;22.63;;;2.20;;
4742;SDS011;24293;48.154;7.748;2022-12-29T12:17:49;3.50;;;1.87;;
4742;SDS011;24293;48.154;7.748;2022-12-29T12:20:21;3.70;;;2.00;;
4742;SDS011;24293;48.154;7.748;2022-12-29T12:22:51;3.30;;;1.70;;
4742;SDS011;24293;48.154;7.748;2022-12-29T12:25:21;4.83;;;1.90;;
4742;SDS011;24293;48.154;7.748;2022-12-29T12:27:48;2.67;;;1.70;;
4742;SDS011;24293;48.154;7.748;2022-12-29T12:30:18;3.97;;;1.50;;
4742;SDS011;24293;48.154;7.748;2022-12-29T12:32:46;8.07;;;2.30;;
4742;SDS011;24293;48.154;7.748;2022-12-29T12:35:15;6.90;;;2.77;;
4742;SDS011;24293;48.154;7.748;2022-12-29T12:37:54;5.10;;;2.03;;
4742;SDS011;24293;48.154;7.748;2022-12-29T12:40:30;5.17;;;2.40;;
4742;SDS011;24293;48.154;7.748;2022-12-29T12:43:04;6.93;;;2.23;;
4742;SDS011;24293;48.154;7.748;2022-12-29T12:45:45;3.03;;;2.07;;
4742;SDS011;24293;48.154;7.748;2022-12-29T12:48:20;5.03;;;2.60;;
4742;SDS011;24293;48.154;7.748;2022-12-29T12:50:52;6.00;;;3.13;;
4742;SDS011;24293;48.154;7.748;2022-12-29T12:53:31;6.53;;;2.27;;
4742;SDS011;24293;48.154;7.748;2022-12-29T12:56:06;4.03;;;2.10;;
4742;SDS011;24293;48.154;7.748;2022-12-29T12:58:39;4.83;;;1.63;;
4742;SDS011;24293;48.154;7.748;2022-12-29T13:01:16;6.80;;;2.20;;
4742;SDS011;24293;48.154;7.748;2022-12-29T13:03:49;9.33;;;2.33;;
4742;SDS011;24293;48.154;7.748;2022-12-29T13:06:23;6.23;;;2.27;;
4742;SDS011;24293;48.154;7.748;2022-12-29T13:09:05;6.10;;;2.73;;
4742;SDS011;24293;48.154;7.748;2022-12-29T13:11:41;10.03;;;2.23;;
4742;SDS011;24293;48.154;7.748;2022-12-29T13:14:16;3.37;;;2.00;;
4742;SDS011;24293;48.154;7.748;2022-12-29T13:16:47;5.90;;;2.30;;
4742;SDS011;24293;48.154;7.748;2022-12-29T13:19:17;4.00;;;2.10;;
4742;SDS011;24293;48.154;7.748;2022-12-29T13:21:52;5.03;;;2.00;;
4742;SDS011;24293;48.154;7.748;2022-12-29T13:24:24;4.00;;;2.27;;
4742;SDS011;24293;48.154;7.748;2022-12-29T13:26:57;4.00;;;2.40;;
4742;SDS011;24293;48.154;7.748;2022-12-29T13:29:28;5.27;;;2.87;;
4742;SDS011;24293;48.154;7.748;2022-12-29T13:32:00;4.30;;;2.60;;
4742;SDS011;24293;48.154;7.748;2022-12-29T13:34:31;7.37;;;2.50;;
4742;SDS011;24293;48.154;7.748;2022-12-29T13:36:59;6.30;;;2.53;;
4742;SDS011;24293;48.154;7.748;2022-12-29T13:39:28;5.17;;;2.40;;
4742;SDS011;24293;48.154;7.748;2022-12-29T13:41:56;5.93;;;2.60;;
4742;SDS011;24293;48.154;7.748;2022-12-29T13:44:23;6.30;;;1.93;;
4742;SDS011;24293;48.154;7.748;2022-12-29T13:46:51;10.47;;;2.20;;
4742;SDS011;24293;48.154;7.748;2022-12-29T13:49:20;4.60;;;1.73;;
4742;SDS011;24293;48.154;7.748;2022-12-29T13:51:47;5.07;;;2.00;;
4742;SDS011;24293;48.154;7.748;2022-12-29T13:54:17;4.07;;;2.07;;
4742;SDS011;24293;48.154;7.748;2022-12-29T13:56:49;3.67;;;1.90;;
4742;SDS011;24293;48.154;7.748;2022-12-29T13:59:20;5.73;;;2.20;;
4742;SDS011;24293;48.154;7.748;2022-12-29T14:01:50;3.40;;;2.10;;
4742;SDS011;24293;48.154;7.748;2022-12-29T14:04:23;5.67;;;2.27;;
4742;SDS011;24293;48.154;7.748;2022-12-29T14:06:59;4.63;;;2.40;;
4742;SDS011;24293;48.154;7.748;2022-12-29T14:09:34;5.10;;;1.80;;
4742;SDS011;24293;48.154;7.748;2022-12-29T14:12:10;5.33;;;2.60;;
4742;SDS011;24293;48.154;7.748;2022-12-29T14:14:46;4.40;;;2.00;;
4742;SDS011;24293;48.154;7.748;2022-12-29T14:17:16;6.90;;;2.37;;
4742;SDS011;24293;48.154;7.748;2022-12-29T14:19:45;6.23;;;2.50;;
4742;SDS011;24293;48.154;7.748;2022-12-29T14:22:12;3.90;;;2.23;;
4742;SDS011;24293;48.154;7.748;2022-12-29T14:24:39;4.17;;;2.30;;
4742;SDS011;24293;48.154;7.748;2022-12-29T14:30:07;4.90;;;3.00;;
4742;SDS011;24293;48.154;7.748;2022-12-29T14:33:00;11.00;;;2.60;;
4742;SDS011;24293;48.154;7.748;2022-12-29T14:35:37;6.67;;;2.80;;
4742;SDS011;24293;48.154;7.748;2022-12-29T14:38:14;4.07;;;2.10;;
4742;SDS011;24293;48.154;7.748;2022-12-29T14:40:41;5.40;;;2.30;;
4742;SDS011;24293;48.154;7.748;2022-12-29T14:43:11;5.33;;;2.50;;
4742;SDS011;24293;48.154;7.748;2022-12-29T14:45:40;4.20;;;2.40;;
4742;SDS011;24293;48.154;7.748;2022-12-29T14:48:20;3.00;;;2.30;;
4742;SDS011;24293;48.154;7.748;2022-12-29T14:50:47;4.60;;;2.07;;
4742;SDS011;24293;48.154;7.748;2022-12-29T14:55:55;4.80;;;2.33;;
4742;SDS011;24293;48.154;7.748;2022-12-29T14:58:25;8.40;;;2.50;;
4742;SDS011;24293;48.154;7.748;2022-12-29T15:00:53;6.03;;;2.50;;
4742;SDS011;24293;48.154;7.748;2022-12-29T15:03:22;3.10;;;2.40;;
4742;SDS011;24293;48.154;7.748;2022-12-29T15:05:50;3.63;;;2.47;;
4742;SDS011;24293;48.154;7.748;2022-12-29T15:08:19;6.77;;;3.17;;
4742;SDS011;24293;48.154;7.748;2022-12-29T15:10:48;5.77;;;3.10;;
4742;SDS011;24293;48.154;7.748;2022-12-29T15:13:21;11.60;;;4.30;;
4742;SDS011;24293;48.154;7.748;2022-12-29T15:15:47;7.37;;;3.57;;
4742;SDS011;24293;48.154;7.748;2022-12-29T15:18:20;5.53;;;3.17;;
4742;SDS011;24293;48.154;7.748;2022-12-29T15:20:49;8.10;;;3.20;;
4742;SDS011;24293;48.154;7.748;2022-12-29T15:23:16;8.40;;;3.87;;
4742;SDS011;24293;48.154;7.748;2022-12-29T15:25:46;5.90;;;3.80;;
4742;SDS011;24293;48.154;7.748;2022-12-29T15:28:13;8.40;;;3.30;;
4742;SDS011;24293;48.154;7.748;2022-12-29T15:30:49;5.20;;;2.70;;